Darya Jyoti — VRGM9 — position and weather

sailwx.info

Track history (hours):
 
Tides and Currents Weather Stations Pressure Air Temp Water Temp Dewpoint Dewpoint Depression Visibility Wind Speed Wind Dir Waves Ship Positions

Darya Jyoti

Last reported at 2018-Apr-16 21:18 UTC. Time now 2018-Apr-22 10:50 UTC.
Position N 37°34' W 000°58'.

Length 229 m; draft 13.2 m.

Type: Cargo ship. MMSI: 477742700.

Date/timePositionNaut miles runAvg speedWind from/ knotsBaromVisibWave heightAir tempDewpointWater temp
2018-Apr-16 21:18N 37°34' W 000°58'1 4.7
2018-Apr-16 21:00N 37°34' W 000°60'3 5.5
2018-Apr-16 20:29N 37°31' W 001°01'0 0.7
2018-Apr-16 19:57N 37°31' W 001°02'0 0.3
2018-Apr-16 19:24N 37°31' W 001°02'0 0.8
2018-Apr-16 19:00N 37°31' W 001°02'3 6.3
2018-Apr-16 18:30N 37°28' W 001°03'510.3
2018-Apr-16 18:00N 37°24' W 001°06'612.4
2018-Apr-16 17:30N 37°19' W 001°11'612.8
2018-Apr-16 17:00N 37°14' W 001°17'712.8
2018-Apr-16 16:30N 37°09' W 001°22'19011.9
2018-Apr-16 00:31N 36°02' W 005°04'112.5
2018-Apr-16 00:27N 36°02' W 005°05'512.2
2018-Apr-16 00:00N 36°01' W 005°12'713.2
2018-Apr-15 23:31N 36°00' W 005°20'612.0
2018-Apr-15 23:00N 36°06' W 005°23'4 7.6
2018-Apr-15 22:29N 36°10' W 005°24'1 1.0
2018-Apr-15 21:58N 36°10' W 005°24'0 0.1
2018-Apr-15 20:49N 36°10' W 005°24'0 0.1
2018-Apr-15 20:16N 36°10' W 005°24'0 0.1
2018-Apr-15 19:55N 36°10' W 005°24'0 0.1
2018-Apr-15 19:28N 36°10' W 005°24'0 0.1
2018-Apr-15 18:31N 36°10' W 005°24'0 0.3
2018-Apr-15 18:22N 36°10' W 005°24'0 0.0
2018-Apr-15 14:43N 36°10' W 005°24'0 0.0
2018-Apr-15 13:55N 36°10' W 005°24'0 0.0
2018-Apr-15 13:19N 36°10' W 005°24'0 0.1
2018-Apr-15 12:56N 36°10' W 005°24'0 0.1
2018-Apr-15 12:29N 36°10' W 005°24'0 0.1
2018-Apr-15 11:55N 36°10' W 005°24'0 0.0
2018-Apr-15 11:25N 36°10' W 005°24'0 0.0
2018-Apr-15 10:49N 36°10' W 005°24'0 0.0
2018-Apr-15 09:16N 36°10' W 005°24'0 0.0
2018-Apr-15 08:55N 36°10' W 005°24'0 0.0
2018-Apr-15 05:07N 36°10' W 005°24'0 0.0
2018-Apr-15 04:55N 36°10' W 005°24'0 0.0
2018-Apr-15 04:25N 36°10' W 005°24'0 0.1
2018-Apr-15 02:49N 36°10' W 005°24'0 0.0
2018-Apr-15 02:01N 36°10' W 005°24'0 0.1
2018-Apr-15 01:55N 36°10' W 005°24'0 0.0
2018-Apr-15 01:25N 36°10' W 005°24'0 0.0
2018-Apr-15 00:55N 36°10' W 005°24'0 0.0
2018-Apr-15 00:19N 36°10' W 005°24'0 0.0
2018-Apr-14 23:55N 36°10' W 005°24'0 0.0
2018-Apr-14 22:58N 36°10' W 005°24'0 0.0
2018-Apr-14 22:19N 36°10' W 005°24'0 0.0
2018-Apr-14 21:55N 36°10' W 005°24'0 0.0
2018-Apr-14 21:28N 36°10' W 005°24'0 0.1
2018-Apr-14 20:49N 36°10' W 005°24'0 0.1
2018-Apr-14 20:25N 36°10' W 005°24'0 0.0
2018-Apr-14 18:55N 36°10' W 005°24'0 0.1
2018-Apr-14 18:25N 36°10' W 005°24'0 0.0
2018-Apr-14 17:49N 36°10' W 005°24'0 0.0
2018-Apr-14 17:28N 36°10' W 005°24'0 0.0
2018-Apr-14 16:31N 36°10' W 005°24'0 0.1
2018-Apr-14 16:25N 36°10' W 005°24'0 0.1
2018-Apr-14 15:01N 36°10' W 005°24'0 0.1
2018-Apr-14 14:55N 36°10' W 005°24'0 0.0
2018-Apr-14 13:32N 36°10' W 005°24'0 0.1
2018-Apr-14 13:07N 36°10' W 005°24'0 0.0
2018-Apr-14 12:43N 36°10' W 005°24'0 0.0
2018-Apr-14 12:25N 36°10' W 005°24'0 0.4
2018-Apr-14 11:53N 36°10' W 005°24'1 3.7
2018-Apr-14 11:30N 36°09' W 005°24'1 2.8
2018-Apr-14 11:01N 36°07' W 005°23'1 2.5
2018-Apr-14 10:30N 36°06' W 005°23'3 5.3
2018-Apr-14 09:59N 36°05' W 005°20'3 5.2
2018-Apr-14 09:31N 36°04' W 005°17'3 5.8
2018-Apr-14 08:56N 36°06' W 005°14'5 1.7
2018-Apr-14 06:03N 36°11' W 005°12'0 1.6
2018-Apr-14 06:01N 36°11' W 005°12'3 0.7
2018-Apr-14 01:20N 36°07' W 005°11'4 6.3
2018-Apr-14 00:38N 36°05' W 005°16'1 6.8
2018-Apr-14 00:30N 36°04' W 005°16'2 4.3
2018-Apr-13 23:58N 36°05' W 005°13'2 0.1
2018-Apr-13 11:16N 36°06' W 005°15'3 9.4
2018-Apr-13 10:58N 36°04' W 005°17'4 8.7
2018-Apr-13 10:31N 36°01' W 005°21'3 6.3
2018-Apr-13 10:01N 35°59' W 005°23'510.8
2018-Apr-13 09:30N 35°57' W 005°30'  
2018-Apr-09 22:19N 38°01' W 024°16'311.0
2018-Apr-09 22:00N 38°01' W 024°20'611.2
2018-Apr-09 21:30N 38°02' W 024°27'911.3
2018-Apr-09 20:44N 38°03' W 024°38'211.1
2018-Apr-09 20:30N 38°03' W 024°41'611.2
2018-Apr-09 20:00N 38°03' W 024°49'511.0
2018-Apr-09 19:30N 38°04' W 024°56'511.0
2018-Apr-09 19:00N 38°04' W 025°03'511.0
2018-Apr-09 18:30N 38°04' W 025°10'610.9
2018-Apr-09 18:00N 38°05' W 025°17'610.9
2018-Apr-09 17:28N 38°06' W 025°24'510.9
2018-Apr-09 16:59N 38°06' W 025°30'510.9
2018-Apr-09 16:30N 38°07' W 025°37'610.6
2018-Apr-09 15:57N 38°07' W 025°44'510.8
2018-Apr-09 15:30N 38°07' W 025°51'711.1
2018-Apr-09 14:51N 38°07' W 025°60'410.9
2018-Apr-09 14:29N 38°06' W 026°05'810.8
2018-Apr-09 13:45N 38°05' W 026°15'410.7
2018-Apr-09 13:21N 38°04' W 026°20'410.8
2018-Apr-09 12:58N 38°03' W 026°25'511.1
2018-Apr-09 12:30N 38°03' W 026°32'1111.4
2018-Apr-09 11:33N 38°02' W 026°45'311.2
2018-Apr-09 11:17N 38°01' W 026°49'411.3
2018-Apr-09 10:55N 38°01' W 026°54'511.3
2018-Apr-09 10:30N 38°00' W 027°00'511.0
2018-Apr-09 10:00N 38°00' W 027°07'611.1
2018-Apr-09 09:30N 38°00' W 027°14'611.2
2018-Apr-09 09:00N 38°01' W 027°21'611.5
2018-Apr-09 08:30N 38°01' W 027°29'611.5
2018-Apr-09 08:00N 38°01' W 027°36'611.6
2018-Apr-09 07:30N 38°01' W 027°43'611.5
2018-Apr-09 07:01N 38°01' W 027°51'611.6
2018-Apr-09 06:30N 38°01' W 027°58'611.7
2018-Apr-09 06:00N 38°01' W 028°05'611.6
2018-Apr-09 05:30N 38°01' W 028°13'611.3
2018-Apr-09 05:00N 38°02' W 028°20'611.3
2018-Apr-09 04:31N 38°02' W 028°27'611.4
2018-Apr-09 04:00N 38°02' W 028°34'611.4
2018-Apr-09 03:30N 38°02' W 028°42'611.3
2018-Apr-09 03:00N 38°02' W 028°49'611.2
2018-Apr-09 02:30N 38°02' W 028°56'611.1
2018-Apr-09 02:00N 38°02' W 029°03'611.0
2018-Apr-09 01:30N 38°02' W 029°10'510.7
2018-Apr-09 01:00N 38°02' W 029°17'510.6
2018-Apr-09 00:30N 38°02' W 029°23'510.8
2018-Apr-09 00:00N 38°02' W 029°30'510.8
2018-Apr-08 23:30N 38°02' W 029°37'510.6
2018-Apr-08 23:00N 38°02' W 029°44'510.6
2018-Apr-08 22:31N 38°02' W 029°51'510.4
2018-Apr-08 22:00N 38°02' W 029°57'510.7
2018-Apr-08 21:30N 38°02' W 030°04'511.0
2018-Apr-08 21:00N 38°02' W 030°11'510.8
2018-Apr-08 20:30N 38°02' W 030°18'510.8
2018-Apr-08 20:00N 38°02' W 030°25'510.9
2018-Apr-08 19:30N 38°02' W 030°32'510.9
2018-Apr-08 19:00N 38°02' W 030°38'510.9
2018-Apr-08 18:31N 38°02' W 030°45'510.8
2018-Apr-08 18:00N 38°02' W 030°52'510.8
2018-Apr-08 17:30N 38°02' W 030°59'510.9
2018-Apr-08 17:00N 38°02' W 031°06'611.0
2018-Apr-08 16:30N 38°02' W 031°13'511.0
2018-Apr-08 16:00N 38°02' W 031°20'611.0
2018-Apr-08 15:30N 38°02' W 031°27'611.2
2018-Apr-08 15:01N 38°02' W 031°34'611.2
2018-Apr-08 14:30N 38°01' W 031°41'511.0
2018-Apr-08 14:00N 38°01' W 031°48'610.7
2018-Apr-08 13:29N 38°01' W 031°55'510.3
2018-Apr-08 13:00N 38°01' W 032°02'510.5
2018-Apr-08 12:30N 38°01' W 032°08'510.4
2018-Apr-08 12:00N 38°01' W 032°15'610.5
2018-Apr-08 11:28N 38°01' W 032°22'510.4
2018-Apr-08 11:00N 38°01' W 032°28'510.4
2018-Apr-08 10:30N 38°01' W 032°35'510.6
2018-Apr-08 10:00N 38°00' W 032°41'510.6
2018-Apr-08 09:30N 38°00' W 032°48'510.5
2018-Apr-08 09:00N 37°60' W 032°55'1710.6
2018-Apr-08 07:26N 37°59' W 033°16'510.7
2018-Apr-08 07:00N 37°59' W 033°22'810.8
2018-Apr-08 06:14N 37°59' W 033°32'310.6
2018-Apr-08 05:59N 37°59' W 033°35'610.5
2018-Apr-08 05:25N 37°59' W 033°43'510.3
2018-Apr-08 04:58N 37°59' W 033°49'610.2
2018-Apr-08 04:23N 37°58' W 033°56'410.4
2018-Apr-08 03:58N 37°58' W 034°02'  
Track history (hours):
 
Tides and Currents Weather Stations Pressure Air Temp Water Temp Dewpoint Dewpoint Depression Visibility Wind Speed Wind Dir Waves Ship Positions

Darya Jyoti

Last reported at 2018-Apr-16 21:18 UTC. Time now 2018-Apr-22 10:50 UTC.
Position N 37°34' W 000°58'.

Length 229 m; draft 13.2 m.

Type: Cargo ship. MMSI: 477742700.

Date/timePositionNaut miles runAvg speedWind from/ knotsBaromVisibWave heightAir tempDewpointWater temp
2018-Apr-16 21:18N 37°34' W 000°58'1 4.7
2018-Apr-16 21:00N 37°34' W 000°60'3 5.5
2018-Apr-16 20:29N 37°31' W 001°01'0 0.7
2018-Apr-16 19:57N 37°31' W 001°02'0 0.3
2018-Apr-16 19:24N 37°31' W 001°02'0 0.8
2018-Apr-16 19:00N 37°31' W 001°02'3 6.3
2018-Apr-16 18:30N 37°28' W 001°03'510.3
2018-Apr-16 18:00N 37°24' W 001°06'612.4
2018-Apr-16 17:30N 37°19' W 001°11'612.8
2018-Apr-16 17:00N 37°14' W 001°17'712.8
2018-Apr-16 16:30N 37°09' W 001°22'19011.9
2018-Apr-16 00:31N 36°02' W 005°04'112.5
2018-Apr-16 00:27N 36°02' W 005°05'512.2
2018-Apr-16 00:00N 36°01' W 005°12'713.2
2018-Apr-15 23:31N 36°00' W 005°20'612.0
2018-Apr-15 23:00N 36°06' W 005°23'4 7.6
2018-Apr-15 22:29N 36°10' W 005°24'1 1.0
2018-Apr-15 21:58N 36°10' W 005°24'0 0.1
2018-Apr-15 20:49N 36°10' W 005°24'0 0.1
2018-Apr-15 20:16N 36°10' W 005°24'0 0.1
2018-Apr-15 19:55N 36°10' W 005°24'0 0.1
2018-Apr-15 19:28N 36°10' W 005°24'0 0.1
2018-Apr-15 18:31N 36°10' W 005°24'0 0.3
2018-Apr-15 18:22N 36°10' W 005°24'0 0.0
2018-Apr-15 14:43N 36°10' W 005°24'0 0.0
2018-Apr-15 13:55N 36°10' W 005°24'0 0.0
2018-Apr-15 13:19N 36°10' W 005°24'0 0.1
2018-Apr-15 12:56N 36°10' W 005°24'0 0.1
2018-Apr-15 12:29N 36°10' W 005°24'0 0.1
2018-Apr-15 11:55N 36°10' W 005°24'0 0.0
2018-Apr-15 11:25N 36°10' W 005°24'0 0.0
2018-Apr-15 10:49N 36°10' W 005°24'0 0.0
2018-Apr-15 09:16N 36°10' W 005°24'0 0.0
2018-Apr-15 08:55N 36°10' W 005°24'0 0.0
2018-Apr-15 05:07N 36°10' W 005°24'0 0.0
2018-Apr-15 04:55N 36°10' W 005°24'0 0.0
2018-Apr-15 04:25N 36°10' W 005°24'0 0.1
2018-Apr-15 02:49N 36°10' W 005°24'0 0.0
2018-Apr-15 02:01N 36°10' W 005°24'0 0.1
2018-Apr-15 01:55N 36°10' W 005°24'0 0.0
2018-Apr-15 01:25N 36°10' W 005°24'0 0.0
2018-Apr-15 00:55N 36°10' W 005°24'0 0.0
2018-Apr-15 00:19N 36°10' W 005°24'0 0.0
2018-Apr-14 23:55N 36°10' W 005°24'0 0.0
2018-Apr-14 22:58N 36°10' W 005°24'0 0.0
2018-Apr-14 22:19N 36°10' W 005°24'0 0.0
2018-Apr-14 21:55N 36°10' W 005°24'0 0.0
2018-Apr-14 21:28N 36°10' W 005°24'0 0.1
2018-Apr-14 20:49N 36°10' W 005°24'0 0.1
2018-Apr-14 20:25N 36°10' W 005°24'0 0.0
2018-Apr-14 18:55N 36°10' W 005°24'0 0.1
2018-Apr-14 18:25N 36°10' W 005°24'0 0.0
2018-Apr-14 17:49N 36°10' W 005°24'0 0.0
2018-Apr-14 17:28N 36°10' W 005°24'0 0.0
2018-Apr-14 16:31N 36°10' W 005°24'0 0.1
2018-Apr-14 16:25N 36°10' W 005°24'0 0.1
2018-Apr-14 15:01N 36°10' W 005°24'0 0.1
2018-Apr-14 14:55N 36°10' W 005°24'0 0.0
2018-Apr-14 13:32N 36°10' W 005°24'0 0.1
2018-Apr-14 13:07N 36°10' W 005°24'0 0.0
2018-Apr-14 12:43N 36°10' W 005°24'0 0.0
2018-Apr-14 12:25N 36°10' W 005°24'0 0.4
2018-Apr-14 11:53N 36°10' W 005°24'1 3.7
2018-Apr-14 11:30N 36°09' W 005°24'1 2.8
2018-Apr-14 11:01N 36°07' W 005°23'1 2.5
2018-Apr-14 10:30N 36°06' W 005°23'3 5.3
2018-Apr-14 09:59N 36°05' W 005°20'3 5.2
2018-Apr-14 09:31N 36°04' W 005°17'3 5.8
2018-Apr-14 08:56N 36°06' W 005°14'5 1.7
2018-Apr-14 06:03N 36°11' W 005°12'0 1.6
2018-Apr-14 06:01N 36°11' W 005°12'3 0.7
2018-Apr-14 01:20N 36°07' W 005°11'4 6.3
2018-Apr-14 00:38N 36°05' W 005°16'1 6.8
2018-Apr-14 00:30N 36°04' W 005°16'2 4.3
2018-Apr-13 23:58N 36°05' W 005°13'2 0.1
2018-Apr-13 11:16N 36°06' W 005°15'3 9.4
2018-Apr-13 10:58N 36°04' W 005°17'4 8.7
2018-Apr-13 10:31N 36°01' W 005°21'3 6.3
2018-Apr-13 10:01N 35°59' W 005°23'510.8
2018-Apr-13 09:30N 35°57' W 005°30'  
2018-Apr-09 22:19N 38°01' W 024°16'311.0
2018-Apr-09 22:00N 38°01' W 024°20'611.2
2018-Apr-09 21:30N 38°02' W 024°27'911.3
2018-Apr-09 20:44N 38°03' W 024°38'211.1
2018-Apr-09 20:30N 38°03' W 024°41'611.2
2018-Apr-09 20:00N 38°03' W 024°49'511.0
2018-Apr-09 19:30N 38°04' W 024°56'511.0
2018-Apr-09 19:00N 38°04' W 025°03'511.0
2018-Apr-09 18:30N 38°04' W 025°10'610.9
2018-Apr-09 18:00N 38°05' W 025°17'610.9
2018-Apr-09 17:28N 38°06' W 025°24'510.9
2018-Apr-09 16:59N 38°06' W 025°30'510.9
2018-Apr-09 16:30N 38°07' W 025°37'610.6
2018-Apr-09 15:57N 38°07' W 025°44'510.8
2018-Apr-09 15:30N 38°07' W 025°51'711.1
2018-Apr-09 14:51N 38°07' W 025°60'410.9
2018-Apr-09 14:29N 38°06' W 026°05'810.8
2018-Apr-09 13:45N 38°05' W 026°15'410.7
2018-Apr-09 13:21N 38°04' W 026°20'410.8
2018-Apr-09 12:58N 38°03' W 026°25'511.1
2018-Apr-09 12:30N 38°03' W 026°32'1111.4
2018-Apr-09 11:33N 38°02' W 026°45'311.2
2018-Apr-09 11:17N 38°01' W 026°49'411.3
2018-Apr-09 10:55N 38°01' W 026°54'511.3
2018-Apr-09 10:30N 38°00' W 027°00'511.0
2018-Apr-09 10:00N 38°00' W 027°07'611.1
2018-Apr-09 09:30N 38°00' W 027°14'611.2
2018-Apr-09 09:00N 38°01' W 027°21'611.5
2018-Apr-09 08:30N 38°01' W 027°29'611.5
2018-Apr-09 08:00N 38°01' W 027°36'611.6
2018-Apr-09 07:30N 38°01' W 027°43'611.5
2018-Apr-09 07:01N 38°01' W 027°51'611.6
2018-Apr-09 06:30N 38°01' W 027°58'611.7
2018-Apr-09 06:00N 38°01' W 028°05'611.6
2018-Apr-09 05:30N 38°01' W 028°13'611.3
2018-Apr-09 05:00N 38°02' W 028°20'611.3
2018-Apr-09 04:31N 38°02' W 028°27'611.4
2018-Apr-09 04:00N 38°02' W 028°34'611.4
2018-Apr-09 03:30N 38°02' W 028°42'611.3
2018-Apr-09 03:00N 38°02' W 028°49'611.2
2018-Apr-09 02:30N 38°02' W 028°56'611.1
2018-Apr-09 02:00N 38°02' W 029°03'611.0
2018-Apr-09 01:30N 38°02' W 029°10'510.7
2018-Apr-09 01:00N 38°02' W 029°17'510.6
2018-Apr-09 00:30N 38°02' W 029°23'510.8
2018-Apr-09 00:00N 38°02' W 029°30'510.8
2018-Apr-08 23:30N 38°02' W 029°37'510.6
2018-Apr-08 23:00N 38°02' W 029°44'510.6
2018-Apr-08 22:31N 38°02' W 029°51'510.4
2018-Apr-08 22:00N 38°02' W 029°57'510.7
2018-Apr-08 21:30N 38°02' W 030°04'511.0
2018-Apr-08 21:00N 38°02' W 030°11'510.8
2018-Apr-08 20:30N 38°02' W 030°18'510.8
2018-Apr-08 20:00N 38°02' W 030°25'510.9
2018-Apr-08 19:30N 38°02' W 030°32'510.9
2018-Apr-08 19:00N 38°02' W 030°38'510.9
2018-Apr-08 18:31N 38°02' W 030°45'510.8
2018-Apr-08 18:00N 38°02' W 030°52'510.8
2018-Apr-08 17:30N 38°02' W 030°59'510.9
2018-Apr-08 17:00N 38°02' W 031°06'611.0
2018-Apr-08 16:30N 38°02' W 031°13'511.0
2018-Apr-08 16:00N 38°02' W 031°20'611.0
2018-Apr-08 15:30N 38°02' W 031°27'611.2
2018-Apr-08 15:01N 38°02' W 031°34'611.2
2018-Apr-08 14:30N 38°01' W 031°41'511.0
2018-Apr-08 14:00N 38°01' W 031°48'610.7
2018-Apr-08 13:29N 38°01' W 031°55'510.3
2018-Apr-08 13:00N 38°01' W 032°02'510.5
2018-Apr-08 12:30N 38°01' W 032°08'510.4
2018-Apr-08 12:00N 38°01' W 032°15'610.5
2018-Apr-08 11:28N 38°01' W 032°22'510.4
2018-Apr-08 11:00N 38°01' W 032°28'510.4
2018-Apr-08 10:30N 38°01' W 032°35'510.6
2018-Apr-08 10:00N 38°00' W 032°41'510.6
2018-Apr-08 09:30N 38°00' W 032°48'510.5
2018-Apr-08 09:00N 37°60' W 032°55'1710.6
2018-Apr-08 07:26N 37°59' W 033°16'510.7
2018-Apr-08 07:00N 37°59' W 033°22'810.8
2018-Apr-08 06:14N 37°59' W 033°32'310.6
2018-Apr-08 05:59N 37°59' W 033°35'610.5
2018-Apr-08 05:25N 37°59' W 033°43'510.3
2018-Apr-08 04:58N 37°59' W 033°49'610.2
2018-Apr-08 04:23N 37°58' W 033°56'410.4
2018-Apr-08 03:58N 37°58' W 034°02'  

Dump ship's entire track history